Time;durP1;ratioP1;P1;durP2;ratioP2;P2;SDS_P1;SDS_P2;PMS_P1;PMS_P2;Temp;Humidity;BMP_temperature;BMP_pressure;BME280_temperature;BME280_humidity;BME280_pressure;Samples;Min_cycle;Max_cycle;Signal;HPM_P1;HPM_P2
2022/01/12 00:00:32;;;;;;;24.00;15.48;;;;;;;-1.08;84.99;102792.03;6196798;23;20607;-62
2022/01/12 00:03:35;;;;;;;14.63;9.48;;;;;;;-1.14;84.51;102786.69;6196676;23;20076;-62
2022/01/12 00:06:39;;;;;;;10.68;6.28;;;;;;;-1.31;84.95;102778.47;6215071;23;20028;-62
2022/01/12 00:09:42;;;;;;;8.77;5.35;;;;;;;-1.26;84.98;102784.59;6215074;23;20019;-62
2022/01/12 00:12:46;;;;;;;9.20;6.35;;;;;;;-1.22;84.78;102783.88;6214989;23;20414;-62
2022/01/12 00:15:50;;;;;;;8.07;5.88;;;;;;;-1.01;84.25;102782.81;6215070;23;20115;-62
2022/01/12 00:18:53;;;;;;;9.38;6.90;;;;;;;-1.21;84.67;102784.75;6215046;23;20028;-62
2022/01/12 00:21:57;;;;;;;8.55;5.65;;;;;;;-1.04;84.18;102787.88;6183348;23;20032;-62
2022/01/12 00:34:52;;;;;;;11.10;6.95;;;;;;;-0.90;83.20;102770.31;6201118;23;20024;-62
2022/01/12 00:37:55;;;;;;;8.93;5.68;;;;;;;-0.83;82.86;102773.13;6184459;23;20028;-62
2022/01/12 00:40:59;;;;;;;9.45;6.00;;;;;;;-0.84;82.83;102775.63;6184002;23;20028;-61
2022/01/12 00:44:06;;;;;;;9.40;6.00;;;;;;;-0.98;82.93;102780.34;6184438;23;20043;-62
2022/01/12 00:47:10;;;;;;;7.68;4.95;;;;;;;-1.03;83.26;102775.06;6184635;23;20027;-62
2022/01/12 00:50:14;;;;;;;;;;;;;;;-0.97;83.16;102766.69;6185087;23;20545;-62
2022/01/12 00:53:17;;;;;;;9.23;5.63;;;;;;;-0.82;82.48;102767.16;6166488;23;19915;-62
2022/01/12 00:56:21;;;;;;;7.68;5.43;;;;;;;-0.95;82.72;102771.03;6184555;23;20173;-61
2022/01/12 00:59:24;;;;;;;9.13;6.20;;;;;;;-0.96;83.23;102776.13;6184306;23;20355;-61
2022/01/12 01:02:28;;;;;;;7.35;5.32;;;;;;;-0.97;83.28;102789.78;6184259;23;20478;-62
2022/01/12 01:05:33;;;;;;;7.07;4.97;;;;;;;-1.27;83.91;102790.56;6183496;23;20067;-62
2022/01/12 01:08:36;;;;;;;6.85;4.65;;;;;;;-1.45;84.11;102798.50;6165919;23;20071;-62
2022/01/12 01:11:40;;;;;;;11.70;5.72;;;;;;;-1.67;85.33;102814.88;6183254;23;20027;-62
2022/01/12 01:15:03;;;;;;;9.25;5.95;;;;;;;-1.65;85.73;102817.50;6184236;23;20363;-62
2022/01/12 01:28:14;;;;;;;8.30;4.97;;;;;;;-0.96;83.21;102809.50;6213241;23;20023;-61
2022/01/12 01:31:19;;;;;;;10.07;6.05;;;;;;;-0.84;82.64;102812.47;6213247;23;20027;-62
2022/01/12 01:34:23;;;;;;;9.32;5.63;;;;;;;-1.10;82.82;102805.63;6195605;23;20070;-62
2022/01/12 01:37:26;;;;;;;9.57;5.43;;;;;;;-1.31;83.36;102814.41;6195562;23;20028;-62
2022/01/12 01:40:31;;;;;;;7.40;5.15;;;;;;;-1.42;83.88;102825.97;6214225;23;20485;-62
2022/01/12 01:53:22;;;;;;;6.47;4.80;;;;;;;-1.23;83.69;102832.59;6213031;23;20102;-62
2022/01/12 01:56:26;;;;;;;9.18;5.78;;;;;;;-1.07;83.25;102839.13;6214185;23;20149;-62
2022/01/12 01:59:29;;;;;;;7.30;5.47;;;;;;;-1.04;83.12;102826.38;6212828;23;20104;-62
2022/01/12 02:02:33;;;;;;;;;;;;;;;-0.97;83.15;102815.47;6196110;23;20055;-62
2022/01/12 02:05:43;;;;;;;7.68;4.95;;;;;;;-0.96;83.09;102818.09;6214167;23;20265;-62
2022/01/12 02:08:47;;;;;;;8.57;5.55;;;;;;;-0.87;82.73;102812.38;6213791;23;20028;-62
2022/01/12 02:11:59;;;;;;;8.83;6.10;;;;;;;-1.00;82.75;102800.84;6213181;23;20023;-62
2022/01/12 02:15:19;;;;;;;8.45;5.10;;;;;;;-1.15;83.41;102794.34;6195507;23;20083;-62
2022/01/12 02:42:01;;;;;;;8.93;5.85;;;;;;;-1.04;83.17;102813.53;6214018;23;20283;-62
2022/01/12 02:56:10;;;;;;;8.63;6.00;;;;;;;-1.54;84.78;102830.69;6215759;23;20039;-61
2022/01/12 02:59:13;;;;;;;8.82;6.05;;;;;;;-1.35;84.54;102842.44;6197035;23;20031;-62
2022/01/12 03:05:34;;;;;;;8.65;5.93;;;;;;;-1.67;84.64;102837.94;6215764;23;20023;-62
2022/01/12 03:08:38;;;;;;;8.35;5.90;;;;;;;-1.30;84.27;102843.50;6197227;23;20089;-62
2022/01/12 03:11:41;;;;;;;6.45;4.57;;;;;;;-1.33;84.01;102846.81;6197199;23;20059;-62
2022/01/12 03:14:52;;;;;;;7.38;5.18;;;;;;;-1.35;83.35;102857.84;6197009;23;20056;-62
2022/01/12 03:17:55;;;;;;;8.55;5.53;;;;;;;-1.52;84.25;102875.25;6215521;23;20474;-62
2022/01/12 03:20:58;;;;;;;6.55;4.80;;;;;;;-1.55;83.92;102854.59;6215429;23;20147;-62
2022/01/12 03:24:02;;;;;;;;;;;;;;;-1.34;83.61;102865.63;6197827;23;20023;-62
2022/01/12 03:27:06;;;;;;;8.30;5.00;;;;;;;-1.35;82.99;102866.41;6215420;23;19966;-62
2022/01/12 03:30:10;;;;;;;7.32;4.80;;;;;;;-1.21;82.19;102849.81;6214510;23;20023;-62
2022/01/12 03:33:50;;;;;;;6.95;4.55;;;;;;;-1.07;81.90;102850.25;6214333;23;20481;-62
2022/01/12 03:39:42;;;;;;;6.82;5.00;;;;;;;-1.23;81.80;102866.84;6214219;23;20051;-62
2022/01/12 03:42:45;;;;;;;8.57;5.90;;;;;;;-1.47;82.89;102872.03;6214114;23;20023;-62
2022/01/12 03:45:49;;;;;;;7.53;5.25;;;;;;;-1.38;82.68;102870.56;6214379;23;20027;-62
2022/01/12 03:48:52;;;;;;;7.65;5.28;;;;;;;-1.21;82.77;102878.03;6196785;23;20019;-62
2022/01/12 03:51:55;;;;;;;7.85;4.88;;;;;;;-1.19;82.21;102876.38;6215059;23;20078;-62
2022/01/12 03:54:59;;;;;;;7.22;5.05;;;;;;;-1.07;81.95;102885.34;6214189;23;20114;-62
2022/01/12 03:58:03;;;;;;;8.02;5.97;;;;;;;-1.02;81.57;102886.34;6196455;23;20024;-62
2022/01/12 04:01:06;;;;;;;;;;;;;;;-1.04;81.72;102873.47;6214653;23;20520;-62
2022/01/12 04:04:17;;;;;;;6.90;4.60;;;;;;;-0.90;81.36;102855.94;6179670;23;20293;-62
2022/01/12 04:10:43;;;;;;;7.60;5.43;;;;;;;-0.83;81.23;102831.31;6214210;23;20051;-62
2022/01/12 04:13:48;;;;;;;;;;;;;;;-1.01;81.33;102813.63;6214449;23;20043;-62
2022/01/12 04:16:52;;;;;;;8.55;5.60;;;;;;;-1.28;82.20;102827.28;6179376;23;20022;-62
2022/01/12 04:19:55;;;;;;;7.20;5.20;;;;;;;-1.46;82.92;102824.13;6196370;23;20402;-62
2022/01/12 04:23:17;;;;;;;7.10;4.72;;;;;;;-1.44;82.94;102833.59;6196571;23;20031;-62
2022/01/12 04:26:21;;;;;;;8.35;6.35;;;;;;;-1.41;82.76;102835.41;6213848;23;20028;-62
2022/01/12 04:29:24;;;;;;;8.10;6.03;;;;;;;-1.41;82.89;102833.72;6213769;23;20084;-62
2022/01/12 04:32:28;;;;;;;7.60;5.28;;;;;;;-1.54;82.96;102830.69;6214797;23;20354;-62
2022/01/12 04:35:35;;;;;;;8.10;5.10;;;;;;;-1.37;82.67;102823.56;6214632;23;20039;-62
2022/01/12 04:38:40;;;;;;;8.05;5.28;;;;;;;-1.50;82.39;102830.84;6179101;23;20541;-62
2022/01/12 04:41:43;;;;;;;7.22;4.95;;;;;;;-1.69;83.79;102837.03;6196248;23;20031;-62
2022/01/12 04:44:48;;;;;;;9.75;5.95;;;;;;;-1.52;83.32;102845.31;6196155;23;20042;-62
2022/01/12 04:51:01;;;;;;;8.98;5.78;;;;;;;-1.20;82.51;102841.28;6213725;23;20512;-62
2022/01/12 04:54:04;;;;;;;6.88;5.03;;;;;;;-1.13;81.83;102838.91;6214559;23;20055;-62
2022/01/12 04:57:08;;;;;;;8.05;5.68;;;;;;;-1.06;81.92;102840.84;6196156;23;20027;-62
2022/01/12 05:00:15;;;;;;;9.48;5.95;;;;;;;-1.01;82.01;102823.91;6195924;23;20359;-62
2022/01/12 05:13:07;;;;;;;7.35;5.97;;;;;;;-1.11;82.17;102816.75;6213371;23;20354;-62
2022/01/12 05:16:11;;;;;;;7.75;6.43;;;;;;;-1.08;82.09;102816.84;6194694;23;20505;-62
2022/01/12 05:19:15;;;;;;;12.10;8.63;;;;;;;-1.02;82.04;102817.91;6195491;23;20426;-62
2022/01/12 05:22:19;;;;;;;12.77;9.30;;;;;;;-0.94;81.56;102836.13;6198642;23;20036;-62
2022/01/12 05:25:22;;;;;;;10.48;7.72;;;;;;;-0.95;81.45;102844.66;6200441;23;20481;-62
2022/01/12 05:28:27;;;;;;;10.43;6.50;;;;;;;-0.82;81.23;102841.66;6200699;23;20024;-62
2022/01/12 05:31:30;;;;;;;9.73;7.30;;;;;;;-0.81;81.77;102840.81;6176554;23;20060;-63
2022/01/12 05:34:36;;;;;;;8.85;6.38;;;;;;;-0.78;81.36;102848.63;6177478;23;20028;-65
2022/01/12 05:37:44;;;;;;;7.97;5.28;;;;;;;-0.73;81.50;102852.22;6176478;23;20024;-64
2022/01/12 05:41:01;;;;;;;8.75;5.68;;;;;;;-0.78;81.52;102834.91;6177331;23;20090;-64
2022/01/12 05:44:08;;;;;;;7.43;5.40;;;;;;;-0.75;81.18;102832.44;6177255;23;20120;-62
2022/01/12 05:47:30;;;;;;;7.95;5.57;;;;;;;-0.74;81.33;102834.16;6174443;23;20118;-61
2022/01/12 05:50:36;;;;;;;7.38;5.15;;;;;;;-0.74;81.21;102814.50;6176730;23;20053;-61
2022/01/12 05:53:47;;;;;;;18.67;12.25;;;;;;;-0.73;81.32;102836.81;6195597;23;20055;-61
2022/01/12 05:56:52;;;;;;;22.55;14.70;;;;;;;-0.96;81.65;102832.63;6178229;23;20482;-61
2022/01/12 05:59:59;;;;;;;19.27;12.57;;;;;;;-0.85;81.76;102845.81;6177516;23;20049;-61
2022/01/12 06:03:04;;;;;;;15.63;10.32;;;;;;;-0.84;81.40;102853.56;6160396;23;20028;-61
2022/01/12 06:06:07;;;;;;;39.25;23.77;;;;;;;-0.69;81.38;102854.88;6193852;23;20028;-61
2022/01/12 06:09:17;;;;;;;23.75;14.52;;;;;;;-0.64;80.86;102866.16;6177178;23;20063;-63
2022/01/12 06:12:24;;;;;;;15.40;9.63;;;;;;;-0.60;81.29;102865.47;6178428;23;20024;-63
2022/01/12 06:15:27;;;;;;;7.95;5.90;;;;;;;-0.74;81.17;102865.88;6178450;23;20522;-64
2022/01/12 06:18:30;;;;;;;;;;;;;;;-0.66;81.07;102878.09;6178371;23;20350;-63
2022/01/12 06:21:34;;;;;;;7.60;5.43;;;;;;;-0.70;81.07;102879.72;6179283;23;19943;-63
2022/01/12 06:24:42;;;;;;;7.40;5.45;;;;;;;-0.66;80.87;102880.69;6180305;23;20071;-63
2022/01/12 06:27:53;;;;;;;8.45;6.18;;;;;;;-0.65;80.72;102869.56;6178970;23;20027;-63
2022/01/12 06:31:17;;;;;;;7.55;5.97;;;;;;;-0.58;80.66;102872.38;6179281;23;20024;-63
2022/01/12 06:34:50;;;;;;;9.00;6.65;;;;;;;-0.58;80.77;102877.50;6177717;23;20032;-62
2022/01/12 06:37:54;;;;;;;8.35;6.80;;;;;;;-0.62;80.38;102879.94;6178562;23;20127;-62
2022/01/12 06:40:58;;;;;;;9.73;7.15;;;;;;;-0.60;80.33;102878.31;6180844;23;20028;-62
2022/01/12 06:44:04;;;;;;;9.38;6.70;;;;;;;-0.55;80.87;102892.16;6179236;23;20071;-62
2022/01/12 06:47:08;;;;;;;10.40;7.72;;;;;;;-0.60;80.92;102893.72;6196337;23;20071;-63
2022/01/12 06:50:12;;;;;;;9.30;6.72;;;;;;;-0.61;80.83;102912.50;6179445;23;20355;-63
2022/01/12 06:53:16;;;;;;;9.25;6.95;;;;;;;-0.67;81.23;102914.88;6180276;23;20473;-63
2022/01/12 06:56:20;;;;;;;9.32;6.50;;;;;;;-0.68;81.21;102936.28;6179640;23;20111;-62
2022/01/12 06:59:28;;;;;;;10.98;7.93;;;;;;;-0.60;80.99;102939.97;6179436;23;20601;-62
2022/01/12 07:02:35;;;;;;;12.88;7.72;;;;;;;-0.51;80.53;102945.38;6178826;23;20079;-62
2022/01/12 07:05:39;;;;;;;14.40;8.90;;;;;;;-0.55;80.11;102944.41;6162369;23;20031;-62
2022/01/12 07:08:43;;;;;;;12.45;8.38;;;;;;;-0.63;80.73;102952.72;6196105;23;20028;-62
2022/01/12 07:11:57;;;;;;;10.73;8.00;;;;;;;-0.63;81.08;102950.16;6179713;23;20514;-63
2022/01/12 07:15:05;;;;;;;9.85;7.47;;;;;;;-0.51;80.81;102938.56;6179461;23;20032;-63
2022/01/12 07:18:10;;;;;;;10.00;7.38;;;;;;;-0.54;80.69;102938.47;6178894;23;20094;-61
2022/01/12 07:21:14;;;;;;;10.20;7.78;;;;;;;-0.47;80.38;102936.97;6206592;23;20036;-62
2022/01/12 07:24:17;;;;;;;10.45;8.27;;;;;;;-0.42;80.94;102953.38;6209681;23;20027;-63
2022/01/12 07:27:20;;;;;;;10.90;8.07;;;;;;;-0.61;81.14;102956.19;6210039;23;20069;-61
2022/01/12 07:30:27;;;;;;;9.73;7.80;;;;;;;-0.61;81.50;102946.78;6175003;23;20031;-61
2022/01/12 07:33:30;;;;;;;10.77;7.75;;;;;;;-0.56;81.47;102949.53;6191514;23;20027;-61
2022/01/12 07:36:33;;;;;;;9.45;7.43;;;;;;;-0.58;81.54;102953.72;6209701;23;20175;-61
2022/01/12 07:39:37;;;;;;;9.45;6.75;;;;;;;-0.60;81.43;102951.13;6209381;23;20027;-61
2022/01/12 07:42:40;;;;;;;9.70;6.90;;;;;;;-0.57;81.53;102947.78;6209522;23;20032;-65
2022/01/12 07:45:51;;;;;;;9.75;6.95;;;;;;;-0.68;81.66;102942.28;6190861;23;20027;-63
2022/01/12 07:48:55;;;;;;;10.18;7.38;;;;;;;-0.75;82.03;102943.78;6208427;23;20106;-63
2022/01/12 07:52:00;;;;;;;;;;;;;;;-1.14;82.90;102955.28;6210741;23;20086;-62
2022/01/12 07:55:05;;;;;;;10.52;7.50;;;;;;;-1.21;83.46;102965.31;6191951;23;19914;-63
2022/01/12 07:58:58;;;;;;;10.43;7.07;;;;;;;-1.26;83.17;102966.84;6206617;23;20059;-62
2022/01/12 08:02:02;;;;;;;8.85;6.38;;;;;;;-1.14;82.86;102966.41;6207021;23;20519;-62
2022/01/12 08:05:05;;;;;;;10.18;7.50;;;;;;;-1.14;83.05;102971.56;6208215;23;20027;-62
2022/01/12 08:08:09;;;;;;;9.35;6.57;;;;;;;-1.08;83.12;102965.75;6208954;23;20023;-62
2022/01/12 08:11:14;;;;;;;12.25;8.38;;;;;;;-1.26;83.03;102974.53;6208623;23;20039;-62
2022/01/12 08:14:17;;;;;;;9.05;7.25;;;;;;;-1.24;83.07;102988.31;6206939;23;20023;-62
2022/01/12 08:17:21;;;;;;;9.88;7.30;;;;;;;-1.27;83.08;103005.31;6207216;23;20075;-62
2022/01/12 08:20:28;;;;;;;13.07;7.95;;;;;;;-1.35;83.36;102997.31;6207610;23;20059;-62
2022/01/12 08:23:31;;;;;;;11.73;7.47;;;;;;;-1.25;83.29;102993.38;6209420;23;20476;-62
2022/01/12 08:26:34;;;;;;;10.43;7.13;;;;;;;-1.06;83.16;103000.03;6209856;23;20088;-62
2022/01/12 08:29:38;;;;;;;;;;;;;;;-0.86;82.44;102990.47;6210061;23;20020;-62
2022/01/12 08:32:41;;;;;;;9.38;6.40;;;;;;;-0.70;82.08;102997.91;6209059;23;19961;-62
2022/01/12 08:35:44;;;;;;;;;;;;;;;-0.74;81.69;103003.72;6209471;23;20086;-62
2022/01/12 08:38:48;;;;;;;11.50;8.15;;;;;;;-0.70;81.81;103005.59;6208860;23;19914;-63
2022/01/12 08:41:51;;;;;;;11.27;8.90;;;;;;;-0.60;81.62;102997.38;6209128;23;20027;-62
2022/01/12 08:44:59;;;;;;;;;;;;;;;-0.66;81.70;102991.16;6209899;23;20082;-62
2022/01/12 08:48:52;;;;;;;10.63;7.38;;;;;;;-0.67;81.63;103000.56;6210019;23;19915;-62
2022/01/12 08:51:55;;;;;;;12.13;7.65;;;;;;;-0.66;82.01;103009.16;6206995;23;20553;-61
2022/01/12 08:55:00;;;;;;;10.82;7.93;;;;;;;-0.69;82.21;103016.75;6207007;23;20024;-61
2022/01/12 08:58:03;;;;;;;11.90;8.77;;;;;;;-0.68;81.79;103019.34;6208215;23;20047;-61
2022/01/12 09:01:06;;;;;;;11.73;8.85;;;;;;;-0.68;82.03;103028.75;6208732;23;20205;-61
2022/01/12 09:04:10;;;;;;;10.63;8.35;;;;;;;-0.58;81.85;103038.53;6208105;23;20023;-61
2022/01/12 09:07:13;;;;;;;10.93;8.45;;;;;;;-0.50;81.69;103043.13;6208771;23;20051;-61
2022/01/12 09:10:17;;;;;;;11.35;9.00;;;;;;;-0.27;81.47;103037.84;6208685;23;20020;-62
2022/01/12 09:13:20;;;;;;;14.57;7.97;;;;;;;-0.20;80.90;103034.66;6190287;23;20023;-61
2022/01/12 09:16:23;;;;;;;10.95;8.82;;;;;;;-0.14;81.02;103033.97;6209913;23;20465;-62
2022/01/12 09:19:28;;;;;;;13.00;9.13;;;;;;;-0.03;80.50;103056.66;6209326;23;20122;-61
2022/01/12 09:22:31;;;;;;;12.15;9.13;;;;;;;0.02;80.27;103059.38;6208812;23;20063;-61
2022/01/12 09:25:38;;;;;;;11.48;8.88;;;;;;;0.12;79.97;103058.81;6206900;23;20028;-61
2022/01/12 09:28:42;;;;;;;8.98;6.85;;;;;;;0.05;80.32;103061.16;6207601;23;20047;-62
2022/01/12 09:31:46;;;;;;;10.98;8.02;;;;;;;0.12;80.42;103053.69;6190129;23;20023;-62
2022/01/12 09:34:49;;;;;;;9.73;7.78;;;;;;;0.10;80.31;103059.63;6208815;23;20359;-62
2022/01/12 09:37:53;;;;;;;10.07;7.25;;;;;;;0.17;80.55;103059.84;6209529;23;20027;-62
2022/01/12 09:40:56;;;;;;;;;;;;;;;0.27;80.30;103075.59;6209281;23;20028;-62
2022/01/12 09:44:00;;;;;;;10.10;7.13;;;;;;;0.33;80.52;103068.06;6189533;23;19918;-62
2022/01/12 09:47:04;;;;;;;;;;;;;;;0.36;80.49;103075.88;6205889;23;20070;-62
2022/01/12 09:50:08;;;;;;;11.73;7.30;;;;;;;0.45;79.98;103069.31;6207627;23;19926;-62
2022/01/12 09:53:11;;;;;;;11.70;8.32;;;;;;;0.54;79.81;103070.38;6208085;23;20051;-63
2022/01/12 09:56:17;;;;;;;11.18;7.95;;;;;;;0.62;79.77;103072.38;6208359;23;20035;-63
2022/01/12 09:59:22;;;;;;;11.48;8.30;;;;;;;0.37;79.71;103075.03;6190637;23;20050;-63
2022/01/12 10:06:41;;;;;;;11.68;7.88;;;;;;;0.42;80.19;103063.19;6208791;23;20020;-63
2022/01/12 10:09:49;;;;;;;10.63;7.82;;;;;;;0.54;79.86;103057.50;6208394;23;20108;-63
2022/01/12 10:12:54;;;;;;;9.88;7.35;;;;;;;0.68;79.67;103058.81;6208419;23;20026;-63
2022/01/12 10:16:15;;;;;;;10.40;7.03;;;;;;;0.79;79.71;103061.69;6206695;23;20087;-63
2022/01/12 10:19:33;;;;;;;8.65;7.13;;;;;;;0.89;79.19;103066.25;6208551;23;20175;-63
2022/01/12 10:22:38;;;;;;;10.63;8.07;;;;;;;0.49;80.04;103065.13;6206875;23;20047;-63
2022/01/12 10:25:46;;;;;;;11.45;7.63;;;;;;;0.76;80.09;103054.75;6205886;23;20074;-63
2022/01/12 10:28:49;;;;;;;9.73;7.97;;;;;;;0.88;79.01;103059.38;6205536;23;20044;-63
2022/01/12 10:32:02;;;;;;;10.40;7.20;;;;;;;0.97;79.53;103053.63;6206104;23;20031;-63
2022/01/12 10:35:06;;;;;;;7.55;5.93;;;;;;;0.82;79.57;103048.91;6189729;23;20070;-63
2022/01/12 10:38:14;;;;;;;10.63;8.55;;;;;;;0.81;78.97;103047.16;6207174;23;20067;-63
2022/01/12 10:41:17;;;;;;;11.45;8.77;;;;;;;0.84;79.64;103057.56;6207720;23;20032;-63
2022/01/12 10:44:23;;;;;;;10.82;7.70;;;;;;;0.87;79.68;103049.91;6206982;23;20051;-63
2022/01/12 10:47:29;;;;;;;11.75;7.60;;;;;;;0.90;80.60;103042.28;6210790;23;20027;-63
2022/01/12 10:50:33;;;;;;;9.60;7.57;;;;;;;0.96;81.64;103037.28;6171848;23;20019;-63
2022/01/12 10:53:37;;;;;;;10.20;7.75;;;;;;;0.97;81.34;103036.47;6209209;23;20028;-63
2022/01/12 10:56:40;;;;;;;10.60;8.52;;;;;;;0.86;81.79;103037.84;6207139;23;20458;-61
2022/01/12 11:00:09;;;;;;;9.57;7.82;;;;;;;1.07;81.50;103033.28;6207497;23;20350;-62
2022/01/12 11:03:20;;;;;;;9.93;7.90;;;;;;;1.22;80.98;103029.41;6208846;23;20071;-67
2022/01/12 11:06:27;;;;;;;10.43;8.03;;;;;;;1.31;80.34;103033.09;6208077;23;20028;-61
2022/01/12 11:09:34;;;;;;;10.80;7.93;;;;;;;1.49;79.43;103030.09;6208562;23;20174;-61
2022/01/12 11:12:39;;;;;;;12.30;8.38;;;;;;;1.38;80.28;103026.38;6191064;23;20039;-63
2022/01/12 11:15:42;;;;;;;10.40;8.38;;;;;;;1.42;80.84;103017.88;6210161;23;20027;-61
2022/01/12 11:18:46;;;;;;;9.77;8.15;;;;;;;1.57;80.61;103005.38;6210269;23;20043;-61
2022/01/12 11:22:08;;;;;;;9.65;7.85;;;;;;;1.86;80.19;103011.25;6210436;23;20087;-62
2022/01/12 11:25:30;;;;;;;12.65;9.27;;;;;;;1.98;79.72;103007.19;6191033;23;20350;-61
2022/01/12 11:28:38;;;;;;;11.32;9.40;;;;;;;1.96;79.94;103001.13;6191357;23;20027;-61
2022/01/12 11:31:41;;;;;;;10.40;7.93;;;;;;;2.14;80.15;103003.25;6210087;23;20027;-61
2022/01/12 11:34:44;;;;;;;10.63;8.07;;;;;;;2.14;80.00;102993.81;6208367;23;20054;-61
2022/01/12 11:37:48;;;;;;;10.55;8.73;;;;;;;2.21;79.54;102998.28;6210363;23;20027;-62
2022/01/12 11:40:54;;;;;;;9.90;7.55;;;;;;;1.91;81.38;102995.84;6193224;23;20509;-62
2022/01/12 11:44:00;;;;;;;10.70;8.75;;;;;;;1.95;81.15;102984.78;6210108;23;20082;-62
2022/01/12 11:47:31;;;;;;;10.55;8.23;;;;;;;2.24;79.27;102981.97;6209627;23;20036;-62
2022/01/12 11:50:34;;;;;;;11.95;9.90;;;;;;;2.19;79.35;102986.16;6209493;23;20520;-62
2022/01/12 11:53:47;;;;;;;;;;;;;;;2.04;80.12;102985.00;6207869;23;20103;-62
2022/01/12 11:56:55;;;;;;;11.05;9.30;;;;;;;2.14;80.37;102982.59;6209454;23;20213;-63
2022/01/12 12:00:04;;;;;;;11.40;9.13;;;;;;;2.21;80.78;102981.91;6190500;23;20107;-62
2022/01/12 12:03:18;;;;;;;9.77;8.00;;;;;;;2.23;81.43;102981.09;6209439;23;20096;-62
2022/01/12 12:06:21;;;;;;;11.57;9.40;;;;;;;2.48;80.54;102985.06;6191781;23;20028;-63
2022/01/12 12:09:44;;;;;;;10.63;9.15;;;;;;;2.72;80.12;102989.00;6209365;23;20457;-63
2022/01/12 12:12:50;;;;;;;12.27;8.98;;;;;;;2.63;79.86;102986.22;6209696;23;20026;-63
2022/01/12 12:15:54;;;;;;;9.73;8.25;;;;;;;2.80;79.36;102980.53;6209993;23;20023;-63
2022/01/12 12:18:57;;;;;;;12.43;9.30;;;;;;;2.84;79.30;102981.50;6190689;23;20520;-63
2022/01/12 12:22:07;;;;;;;10.63;8.55;;;;;;;2.96;79.16;102986.84;6177809;23;20261;-63
2022/01/12 12:25:16;;;;;;;11.02;8.82;;;;;;;3.18;79.07;102982.94;6179245;23;20336;-63
2022/01/12 12:28:19;;;;;;;11.88;9.02;;;;;;;3.29;78.68;102972.81;6178371;23;20069;-63
2022/01/12 12:31:24;;;;;;;11.43;9.07;;;;;;;3.23;79.05;102972.72;6176831;23;20402;-64
2022/01/12 12:34:29;;;;;;;11.65;8.93;;;;;;;3.42;78.83;102966.13;6178463;23;20083;-63
2022/01/12 12:37:38;;;;;;;10.57;8.35;;;;;;;3.47;78.85;102969.66;6178896;23;20024;-64
2022/01/12 12:40:43;;;;;;;10.27;8.48;;;;;;;3.44;78.22;102975.63;6177390;23;20101;-63
2022/01/12 12:43:46;;;;;;;10.95;8.75;;;;;;;3.35;78.67;102972.94;6178853;23;20474;-64
2022/01/12 12:46:49;;;;;;;;;;;;;;;3.41;78.31;102975.59;6178379;23;20051;-63
2022/01/12 12:50:00;;;;;;;11.65;9.25;;;;;;;3.37;78.77;102968.63;6179492;23;19922;-63
2022/01/12 12:53:04;;;;;;;10.45;9.23;;;;;;;3.33;78.73;102972.00;6179786;23;20344;-63
2022/01/12 12:56:08;;;;;;;;;;;;;;;3.35;78.72;102980.69;6179874;23;20079;-63
2022/01/12 12:59:11;;;;;;;11.63;8.90;;;;;;;3.11;79.17;102995.75;6177950;23;19923;-63
2022/01/12 13:02:14;;;;;;;11.38;9.25;;;;;;;2.91;80.12;102998.84;6178110;23;20028;-63
2022/01/12 13:05:22;;;;;;;9.77;8.32;;;;;;;2.90;80.92;102991.03;6178441;23;20074;-63
2022/01/12 13:08:25;;;;;;;11.32;9.82;;;;;;;3.03;80.45;102996.50;6178678;23;20075;-63
2022/01/12 13:11:30;;;;;;;;;;;;;;;3.09;80.71;102992.25;6179435;23;20090;-63
2022/01/12 13:14:45;;;;;;;11.32;8.30;;;;;;;3.09;80.41;102995.72;6177495;23;19914;-63
2022/01/12 13:18:07;;;;;;;11.98;9.38;;;;;;;3.15;80.28;103002.72;6178021;23;20412;-63
2022/01/12 13:21:16;;;;;;;10.27;8.95;;;;;;;3.15;80.94;103002.72;6187944;23;20373;-63
2022/01/12 13:24:22;;;;;;;13.18;9.02;;;;;;;3.21;80.94;103002.81;6189838;23;20525;-63
2022/01/12 13:27:27;;;;;;;13.13;10.05;;;;;;;3.38;80.49;103008.28;6189990;23;20071;-63
2022/01/12 13:30:32;;;;;;;10.82;9.55;;;;;;;3.19;81.36;103007.09;6208185;23;20114;-64
2022/01/12 13:33:41;;;;;;;12.30;9.63;;;;;;;3.30;80.81;103003.00;6208500;23;20028;-63
2022/01/12 13:36:51;;;;;;;11.70;9.88;;;;;;;3.29;80.95;103003.84;6208493;23;20078;-63
2022/01/12 13:40:10;;;;;;;15.35;9.80;;;;;;;3.20;81.31;103004.53;6189698;23;20102;-63
2022/01/12 13:43:19;;;;;;;11.27;9.00;;;;;;;3.31;80.87;102999.56;6207683;23;20407;-63
2022/01/12 13:46:30;;;;;;;12.43;10.05;;;;;;;3.24;82.05;102989.97;6190020;23;20353;-63
2022/01/12 13:49:33;;;;;;;12.70;9.45;;;;;;;3.30;81.59;102995.25;6208527;23;20425;-63
2022/01/12 13:52:37;;;;;;;12.80;10.57;;;;;;;3.32;81.70;102984.91;6208143;23;20032;-63
2022/01/12 13:55:54;;;;;;;12.52;10.38;;;;;;;3.37;82.22;102994.50;6187580;23;20027;-63
2022/01/12 13:58:57;;;;;;;11.73;10.05;;;;;;;3.43;81.71;102994.59;6202686;23;20033;-63
2022/01/12 14:02:11;;;;;;;;;;;;;;;3.45;81.81;102987.75;6204062;23;20397;-63
2022/01/12 14:05:19;;;;;;;12.82;10.38;;;;;;;3.35;82.26;102985.84;6203119;23;19958;-63
2022/01/12 14:08:22;;;;;;;14.25;11.98;;;;;;;3.01;83.38;102990.41;6208212;23;20350;-63
2022/01/12 14:11:34;;;;;;;13.85;12.18;;;;;;;3.06;83.85;102989.63;6207338;23;20059;-63
2022/01/12 14:14:50;;;;;;;10.40;8.82;;;;;;;3.07;83.43;102994.84;6206944;23;20075;-62
2022/01/12 14:17:54;;;;;;;13.43;11.18;;;;;;;2.97;83.82;102986.03;6208466;23;20146;-62
2022/01/12 14:20:59;;;;;;;11.98;10.73;;;;;;;2.83;84.34;102977.13;6206151;23;20103;-62
2022/01/12 14:24:07;;;;;;;13.85;10.02;;;;;;;2.87;84.01;102970.31;6206122;23;20489;-63
2022/01/12 14:27:10;;;;;;;12.40;10.25;;;;;;;3.02;83.54;102966.28;6206077;23;20566;-63
2022/01/12 14:30:16;;;;;;;;;;;;;;;3.01;83.14;102967.16;6207864;23;20048;-63
2022/01/12 14:33:19;;;;;;;13.35;11.23;;;;;;;2.80;85.14;102964.16;6189892;23;20542;-62
2022/01/12 14:36:22;;;;;;;14.98;11.43;;;;;;;2.81;84.77;102968.50;6189841;23;20074;-62
2022/01/12 14:39:26;;;;;;;13.18;10.57;;;;;;;2.67;85.29;102957.88;6208053;23;20087;-62
2022/01/12 14:42:41;;;;;;;14.82;11.48;;;;;;;2.70;84.93;102959.66;6208664;23;20592;-62
2022/01/12 14:45:46;;;;;;;13.13;10.70;;;;;;;2.66;85.54;102960.47;6211231;23;20086;-62
2022/01/12 14:48:52;;;;;;;14.80;11.57;;;;;;;2.74;85.44;102964.03;6210836;23;20356;-63
2022/01/12 14:51:57;;;;;;;12.70;10.90;;;;;;;2.79;85.26;102977.94;6209953;23;20702;-64
2022/01/12 14:55:05;;;;;;;13.55;10.95;;;;;;;2.70;85.35;102982.91;6209004;23;20090;-63
2022/01/12 14:58:09;;;;;;;13.15;10.07;;;;;;;2.59;86.54;102985.28;6209673;23;20506;-63
2022/01/12 15:01:13;;;;;;;11.88;9.60;;;;;;;2.72;85.79;102978.66;6209412;23;20027;-64
2022/01/12 15:04:16;;;;;;;;;;;;;;;2.72;85.93;102981.25;6210077;23;20031;-64
2022/01/12 15:07:20;;;;;;;14.05;10.50;;;;;;;2.66;86.44;102979.41;6209876;23;19915;-63
2022/01/12 15:10:26;;;;;;;13.88;10.57;;;;;;;2.80;85.41;102983.13;6189025;23;20027;-64
2022/01/12 15:13:41;;;;;;;14.32;11.57;;;;;;;2.83;84.90;102978.84;6209447;23;20032;-64
2022/01/12 15:16:44;;;;;;;12.27;8.98;;;;;;;2.98;85.14;102979.16;6209581;23;20073;-64
2022/01/12 15:19:47;;;;;;;12.48;9.32;;;;;;;2.99;84.67;102968.81;6208806;23;20287;-61
2022/01/12 15:22:51;;;;;;;11.18;9.00;;;;;;;2.82;85.46;102978.00;6207384;23;20031;-60
2022/01/12 15:25:55;;;;;;;;;;;;;;;2.97;84.88;102980.00;6209576;23;20030;-63
2022/01/12 15:28:59;;;;;;;10.38;8.35;;;;;;;2.93;84.63;102984.22;6208579;23;19999;-63
2022/01/12 15:32:03;;;;;;;13.68;10.27;;;;;;;2.91;85.02;102973.00;6191131;23;20070;-64
2022/01/12 15:35:07;;;;;;;12.73;9.75;;;;;;;2.85;84.56;102965.13;6190918;23;20354;-61
2022/01/12 15:38:12;;;;;;;14.48;10.82;;;;;;;2.88;84.45;102972.94;6191027;23;20030;-61
2022/01/12 15:41:15;;;;;;;17.00;13.30;;;;;;;2.74;84.88;102980.44;6208784;23;20067;-61
2022/01/12 15:44:19;;;;;;;9.73;7.90;;;;;;;2.75;84.97;102987.34;6208889;23;20401;-61
2022/01/12 15:47:23;;;;;;;11.00;8.45;;;;;;;2.78;84.80;102986.53;6191590;23;20120;-61
2022/01/12 15:50:26;;;;;;;10.95;8.18;;;;;;;2.78;84.83;102999.44;6208648;23;20019;-61
2022/01/12 15:53:29;;;;;;;10.57;8.77;;;;;;;2.73;84.40;102990.72;6207750;23;20074;-61
2022/01/12 15:56:33;;;;;;;11.32;8.52;;;;;;;2.66;84.56;102988.88;6209267;23;20039;-61
2022/01/12 15:59:36;;;;;;;;;;;;;;;2.52;84.26;102998.91;6210276;23;20103;-62
2022/01/12 16:02:39;;;;;;;11.07;8.37;;;;;;;2.48;84.81;103004.84;6210018;23;20336;-62